Time;durP1;ratioP1;P1;durP2;ratioP2;P2;SDS_P1;SDS_P2;PMS_P1;PMS_P2;Temp;Humidity;BMP_temperature;BMP_pressure;BME280_temperature;BME280_humidity;BME280_pressure;Samples;Min_cycle;Max_cycle;Signal;HPM_P1;HPM_P2
2021/05/25 00:00:59;;;;;;;5.55;2.58;;;;;;;12.58;73.15;101275.27;1765406;79;21092;-66
2021/05/25 00:03:25;;;;;;;5.15;2.80;;;;;;;12.59;73.13;101276.94;1764892;80;21024;-66
2021/05/25 00:05:52;;;;;;;3.40;2.47;;;;;;;12.58;73.26;101273.92;1764654;80;21048;-66
2021/05/25 00:08:20;;;;;;;5.45;2.70;;;;;;;12.57;73.29;101274.95;1766382;81;20991;-66
2021/05/25 00:10:46;;;;;;;3.17;1.60;;;;;;;12.56;73.39;101273.28;1780782;80;21046;-66
2021/05/25 00:13:14;;;;;;;3.42;1.60;;;;;;;12.58;73.37;101267.26;1781915;80;21152;-66
2021/05/25 00:15:40;;;;;;;2.33;1.47;;;;;;;12.55;73.37;101271.11;1781632;80;20934;-68
2021/05/25 00:18:07;;;;;;;2.83;1.40;;;;;;;12.53;73.35;101266.46;1781801;80;21009;-67
2021/05/25 00:20:33;;;;;;;2.92;1.12;;;;;;;12.51;73.36;101263.11;1778533;79;21593;-66
2021/05/25 00:23:00;;;;;;;3.47;1.40;;;;;;;12.50;73.42;101264.11;1788764;79;21024;-66
2021/05/25 00:25:26;;;;;;;1.80;1.20;;;;;;;12.51;73.51;101260.95;1781538;79;21452;-66
2021/05/25 00:27:54;;;;;;;2.67;1.00;;;;;;;12.50;73.54;101260.64;1781452;79;21039;-66
2021/05/25 00:30:21;;;;;;;2.72;1.20;;;;;;;12.47;73.52;101259.12;1781575;79;20948;-66
2021/05/25 00:32:48;;;;;;;2.75;0.95;;;;;;;12.47;73.56;101264.45;1783567;79;21864;-66
2021/05/25 00:35:14;;;;;;;3.17;1.05;;;;;;;12.46;73.53;101256.12;1781565;79;21592;-66
2021/05/25 00:37:41;;;;;;;2.45;1.20;;;;;;;12.45;73.54;101258.47;1793947;79;21119;-66
2021/05/25 00:40:08;;;;;;;4.67;1.20;;;;;;;12.42;73.68;101251.31;1812522;79;21530;-67
2021/05/25 00:42:37;;;;;;;4.90;1.10;;;;;;;12.42;73.72;101252.65;1813472;79;21014;-65
2021/05/25 00:45:06;;;;;;;2.90;1.02;;;;;;;12.42;73.83;101261.98;1811961;79;21586;-65
2021/05/25 00:47:35;;;;;;;4.62;1.25;;;;;;;12.39;73.88;101258.30;1770064;80;21105;-66
2021/05/25 00:50:11;;;;;;;3.30;1.30;;;;;;;12.37;73.97;101260.31;1781280;80;21041;-67
2021/05/25 00:52:47;;;;;;;2.62;1.70;;;;;;;12.34;74.06;101265.99;1781272;80;21510;-67
2021/05/25 00:55:21;;;;;;;2.15;1.10;;;;;;;12.32;74.13;101258.16;1797705;79;20971;-67
2021/05/25 00:57:48;;;;;;;4.87;1.30;;;;;;;12.31;74.23;101259.67;1774452;80;21546;-65
2021/05/25 01:00:17;;;;;;;4.28;1.15;;;;;;;12.29;74.25;101258.50;1741601;82;21002;-66
2021/05/25 01:02:44;;;;;;;1.90;0.82;;;;;;;12.27;74.25;101259.67;1715891;83;21075;-67
2021/05/25 01:05:12;;;;;;;2.40;1.10;;;;;;;12.26;74.32;101258.00;1715536;83;21048;-66
2021/05/25 01:07:40;;;;;;;1.80;1.02;;;;;;;12.25;74.35;101266.50;1716000;82;21036;-67
2021/05/25 01:10:12;;;;;;;2.50;1.20;;;;;;;12.26;74.40;101271.34;1712062;82;21092;-65
2021/05/25 01:12:50;;;;;;;1.77;1.20;;;;;;;12.22;74.39;101264.17;1706385;83;21702;-67
2021/05/25 01:15:11;;;;;;;2.52;1.20;;;;;;;12.23;74.32;101261.02;1721118;82;21090;-67
2021/05/25 01:17:36;;;;;;;3.50;1.10;;;;;;;12.22;74.41;101262.84;1704133;84;21051;-67
2021/05/25 01:20:06;;;;;;;3.17;1.30;;;;;;;12.19;74.36;101259.68;1703704;83;20992;-66
2021/05/25 01:22:33;;;;;;;2.85;1.35;;;;;;;12.16;74.44;101268.02;1721541;82;20979;-66
2021/05/25 01:25:00;;;;;;;4.17;1.40;;;;;;;12.13;74.45;101277.66;1729248;82;21461;-67
2021/05/25 01:27:26;;;;;;;4.97;1.50;;;;;;;12.12;74.44;101286.19;1729629;82;21666;-67
2021/05/25 01:29:52;;;;;;;5.37;1.60;;;;;;;12.10;74.48;101288.17;1722728;81;20988;-67
2021/05/25 01:32:19;;;;;;;2.83;1.35;;;;;;;12.06;74.58;101291.67;1756571;81;21075;-66
2021/05/25 01:34:45;;;;;;;3.30;1.32;;;;;;;12.05;74.63;101292.66;1736535;82;21575;-66
2021/05/25 01:37:12;;;;;;;2.40;1.17;;;;;;;12.05;74.67;101287.83;1758083;81;21015;-67
2021/05/25 01:39:38;;;;;;;2.22;1.07;;;;;;;12.04;74.62;101295.02;1739702;82;21126;-67
2021/05/25 01:42:05;;;;;;;1.98;1.12;;;;;;;12.04;74.59;101295.02;1758259;81;21051;-66
2021/05/25 01:44:37;;;;;;;2.98;1.30;;;;;;;12.04;74.55;101300.34;1736584;82;21079;-67
2021/05/25 01:47:03;;;;;;;2.67;1.20;;;;;;;12.03;74.46;101296.50;1727144;83;21000;-67
2021/05/25 01:49:30;;;;;;;4.87;1.10;;;;;;;12.01;74.43;101299.81;1707799;83;21019;-67
2021/05/25 01:51:56;;;;;;;3.22;1.22;;;;;;;11.99;74.49;101304.49;1717761;82;21085;-67
2021/05/25 01:54:22;;;;;;;2.85;1.10;;;;;;;11.95;74.54;101305.33;1705969;84;21003;-67
2021/05/25 01:56:49;;;;;;;2.58;1.45;;;;;;;11.95;74.57;101304.00;1726788;82;21020;-67
2021/05/25 01:59:16;;;;;;;2.67;1.52;;;;;;;11.95;74.57;101308.48;1708402;82;21087;-67
2021/05/25 02:01:44;;;;;;;2.42;1.32;;;;;;;11.93;74.49;101317.97;1709640;82;20995;-68
2021/05/25 02:04:11;;;;;;;6.00;1.80;;;;;;;11.92;74.53;101319.48;1748303;81;21034;-67
2021/05/25 02:06:39;;;;;;;4.08;1.70;;;;;;;11.92;74.55;101327.48;1739399;82;20967;-67
2021/05/25 02:09:05;;;;;;;4.80;1.85;;;;;;;11.92;74.54;101320.32;1745560;81;21082;-66
2021/05/25 02:11:32;;;;;;;6.50;2.80;;;;;;;11.90;74.63;101318.30;1796219;79;21472;-66
2021/05/25 02:14:00;;;;;;;4.20;2.60;;;;;;;11.88;74.66;101325.65;1796437;79;21512;-67
2021/05/25 02:16:27;;;;;;;6.03;2.92;;;;;;;11.88;74.73;101323.48;1766951;79;21074;-67
2021/05/25 02:18:55;;;;;;;9.80;3.77;;;;;;;11.88;74.75;101316.32;1765688;79;21143;-67
2021/05/25 02:21:22;;;;;;;8.65;2.83;;;;;;;11.86;74.93;101306.31;1765287;80;20983;-67
2021/05/25 02:23:49;;;;;;;5.47;2.25;;;;;;;11.84;74.98;101303.48;1765311;81;20955;-67
2021/05/25 02:26:16;;;;;;;9.98;2.33;;;;;;;11.82;75.04;101307.63;1765425;80;21078;-67
2021/05/25 02:28:42;;;;;;;8.28;2.45;;;;;;;11.82;75.05;101309.49;1743881;81;21119;-67
2021/05/25 02:31:09;;;;;;;3.50;1.80;;;;;;;11.81;75.14;101308.66;1767651;79;21025;-67
2021/05/25 02:33:35;;;;;;;3.72;1.90;;;;;;;11.83;75.21;101309.80;1765288;79;21020;-67
2021/05/25 02:36:03;;;;;;;2.80;1.45;;;;;;;11.85;75.18;101307.83;1765315;81;20936;-67
2021/05/25 02:38:30;;;;;;;3.60;1.65;;;;;;;11.90;75.07;101306.31;1765366;81;21552;-67
2021/05/25 02:40:58;;;;;;;4.60;1.85;;;;;;;11.92;75.00;101307.00;1764782;81;21815;-66
2021/05/25 02:43:26;;;;;;;6.22;1.42;;;;;;;11.96;74.96;101314.16;1764959;81;21004;-66
2021/05/25 02:45:53;;;;;;;3.45;1.20;;;;;;;12.00;74.90;101323.00;1765670;79;21414;-67
2021/05/25 02:48:20;;;;;;;2.87;1.20;;;;;;;12.07;74.69;101328.49;1764972;80;21556;-67
2021/05/25 02:50:46;;;;;;;2.45;1.00;;;;;;;12.12;74.46;101328.00;1785828;79;20991;-67
2021/05/25 02:53:15;;;;;;;3.95;1.20;;;;;;;12.15;74.38;101328.50;1796401;79;20983;-67
2021/05/25 02:55:42;;;;;;;4.60;1.32;;;;;;;12.18;74.27;101329.98;1796327;79;20960;-66
2021/05/25 02:58:09;;;;;;;3.52;1.30;;;;;;;12.22;74.20;101332.66;1796346;79;21023;-66
2021/05/25 03:00:41;;;;;;;4.20;1.30;;;;;;;12.24;74.03;101330.64;1796254;79;21137;-67
2021/05/25 03:03:08;;;;;;;3.75;1.15;;;;;;;12.29;73.88;101341.66;1755203;79;21494;-66
2021/05/25 03:05:34;;;;;;;3.17;1.30;;;;;;;12.32;73.74;101342.64;1756443;79;21604;-66
2021/05/25 03:08:03;;;;;;;1.77;0.93;;;;;;;12.36;73.65;101338.64;1796324;79;21471;-67
2021/05/25 03:10:33;;;;;;;6.60;1.30;;;;;;;12.41;73.54;101337.66;1796275;79;21133;-66
2021/05/25 03:13:00;;;;;;;5.33;1.17;;;;;;;12.46;73.47;101340.66;1796012;79;21047;-67
2021/05/25 03:15:31;;;;;;;2.52;1.15;;;;;;;12.49;73.54;101342.98;1790171;79;21090;-65
2021/05/25 03:17:59;;;;;;;6.25;1.25;;;;;;;12.52;73.63;101349.31;1764608;81;21098;-69
2021/05/25 03:20:27;;;;;;;9.53;3.45;;;;;;;12.57;73.70;101355.48;1764652;81;21031;-71
2021/05/25 03:22:54;;;;;;;7.50;3.22;;;;;;;12.61;73.74;101354.98;1790384;79;20995;-69
2021/05/25 03:25:21;;;;;;;8.53;3.30;;;;;;;12.66;73.78;101353.11;1787567;79;21078;-71
2021/05/25 03:27:47;;;;;;;3.52;2.30;;;;;;;12.69;73.66;101354.94;1775656;79;21026;-77
2021/05/25 03:30:18;;;;;;;6.55;2.37;;;;;;;12.75;73.55;101346.28;1769430;79;21892;-74
2021/05/25 03:32:44;;;;;;;4.67;1.70;;;;;;;12.81;73.41;101344.25;1773475;79;21003;-74
2021/05/25 03:35:13;;;;;;;3.80;1.50;;;;;;;12.89;73.01;101352.73;1775383;79;20903;-74
2021/05/25 03:37:39;;;;;;;4.40;1.52;;;;;;;12.95;72.57;101354.22;1772155;79;20984;-76
2021/05/25 03:40:09;;;;;;;3.77;1.40;;;;;;;13.01;72.20;101354.88;1765028;81;21552;-76
2021/05/25 03:42:36;;;;;;;9.98;1.30;;;;;;;13.07;71.81;101345.87;1765038;81;21123;-68
2021/05/25 03:45:05;;;;;;;3.60;1.40;;;;;;;13.13;71.54;101353.21;1764911;81;20988;-69
2021/05/25 03:47:32;;;;;;;3.50;1.22;;;;;;;13.18;71.38;101353.54;1771931;80;20923;-76
2021/05/25 03:50:08;;;;;;;2.67;1.30;;;;;;;13.21;71.23;101351.84;1775504;80;20994;-75
2021/05/25 03:52:40;;;;;;;5.28;1.42;;;;;;;13.26;71.07;101352.14;1776337;80;21062;-73
2021/05/25 04:00:48;;;;;;;3.58;1.35;;;;;;;13.36;70.81;101354.12;1772766;80;20994;-79
2021/05/25 04:03:15;;;;;;;3.45;1.40;;;;;;;13.41;70.79;101353.92;1770456;79;21022;-80
2021/05/25 04:05:41;;;;;;;6.45;1.60;;;;;;;13.46;70.75;101351.56;1764937;81;21007;-79
2021/05/25 04:08:11;;;;;;;4.62;1.40;;;;;;;13.53;70.56;101344.17;1765075;80;21070;-80
2021/05/25 04:10:37;;;;;;;5.58;1.40;;;;;;;13.59;70.46;101348.34;1791347;79;21094;-79
2021/05/25 04:13:05;;;;;;;5.90;1.75;;;;;;;13.66;70.19;101349.30;1796868;79;20996;-80
2021/05/25 04:15:34;;;;;;;4.15;1.40;;;;;;;13.74;69.96;101351.92;1775105;79;20896;-79
2021/05/25 04:18:01;;;;;;;4.37;1.77;;;;;;;13.82;69.54;101348.38;1774809;79;21630;-77
2021/05/25 04:20:28;;;;;;;3.85;1.10;;;;;;;13.88;69.20;101347.16;1796704;79;21070;-78
2021/05/25 04:22:54;;;;;;;3.17;1.70;;;;;;;13.93;68.95;101351.47;1796606;79;21559;-69
2021/05/25 04:25:21;;;;;;;4.45;1.47;;;;;;;13.96;68.92;101347.09;1763632;80;20858;-69
2021/05/25 04:27:48;;;;;;;6.28;1.62;;;;;;;14.02;68.77;101350.88;1765288;81;21056;-69
2021/05/25 04:30:15;;;;;;;7.70;2.15;;;;;;;14.09;68.60;101342.47;1767819;79;21019;-69
2021/05/25 04:32:41;;;;;;;4.72;1.55;;;;;;;14.18;68.13;101337.91;1771139;79;21072;-69
2021/05/25 04:35:09;;;;;;;5.15;1.87;;;;;;;14.24;67.67;101340.68;1796622;79;21080;-69
2021/05/25 04:37:35;;;;;;;2.87;1.27;;;;;;;14.31;67.54;101340.28;1796711;79;20976;-70
2021/05/25 04:40:02;;;;;;;3.25;1.42;;;;;;;14.38;67.15;101332.42;1796648;79;20899;-70
2021/05/25 04:42:28;;;;;;;4.47;1.90;;;;;;;14.43;66.81;101334.86;1769306;79;21054;-69
2021/05/25 04:44:55;;;;;;;3.08;1.22;;;;;;;14.48;66.75;101334.33;1765316;80;21098;-68
2021/05/25 04:47:22;;;;;;;1.65;1.00;;;;;;;14.49;66.67;101336.50;1784256;79;21468;-67
2021/05/25 04:49:49;;;;;;;3.98;2.08;;;;;;;14.50;66.53;101343.02;1794469;79;20979;-68
2021/05/25 04:52:15;;;;;;;5.80;2.47;;;;;;;14.51;66.74;101345.16;1770657;79;21087;-68
2021/05/25 04:54:43;;;;;;;5.87;1.85;;;;;;;14.52;66.81;101342.31;1765059;80;20975;-68
2021/05/25 04:57:10;;;;;;;4.20;1.80;;;;;;;14.54;66.66;101336.80;1728481;82;21618;-67
2021/05/25 04:59:36;;;;;;;7.30;2.10;;;;;;;14.55;66.80;101338.44;1719763;81;21658;-70
2021/05/25 05:02:03;;;;;;;6.85;1.72;;;;;;;14.58;67.23;101334.89;1716887;82;20999;-75
2021/05/25 05:04:30;;;;;;;5.10;2.10;;;;;;;14.61;67.15;101337.73;1739771;82;21074;-74
2021/05/25 05:06:56;;;;;;;6.87;1.40;;;;;;;14.66;67.37;101338.83;1738308;82;21066;-73
2021/05/25 05:09:23;;;;;;;5.42;1.45;;;;;;;14.74;67.38;101340.09;1739806;82;20975;-71
2021/05/25 05:11:51;;;;;;;8.48;1.45;;;;;;;14.87;67.10;101340.80;1739668;82;21031;-73
2021/05/25 05:14:17;;;;;;;7.28;2.10;;;;;;;14.98;66.77;101342.19;1739981;82;21051;-73
2021/05/25 05:16:45;;;;;;;3.27;1.35;;;;;;;15.08;66.55;101352.10;1739784;82;21013;-74
2021/05/25 05:19:11;;;;;;;6.33;1.50;;;;;;;15.21;66.20;101353.63;1739786;82;21015;-75
2021/05/25 05:21:40;;;;;;;5.00;2.30;;;;;;;15.30;65.83;101352.50;1739735;82;21072;-71
2021/05/25 05:24:08;;;;;;;6.62;2.30;;;;;;;15.37;65.70;101349.42;1739796;82;21551;-73
2021/05/25 05:26:35;;;;;;;4.30;1.00;;;;;;;15.47;65.21;101354.48;1739798;82;20907;-76
2021/05/25 05:29:01;;;;;;;5.58;1.65;;;;;;;15.52;64.78;101358.81;1739955;82;20994;-76
2021/05/25 05:31:28;;;;;;;8.78;3.75;;;;;;;15.57;64.65;101359.05;1739917;82;21046;-76
2021/05/25 05:33:55;;;;;;;3.62;1.70;;;;;;;15.59;64.63;101359.72;1739744;82;21058;-73
2021/05/25 05:36:22;;;;;;;9.48;2.58;;;;;;;15.63;64.24;101355.13;1739639;82;21003;-76
2021/05/25 05:38:48;;;;;;;6.50;2.20;;;;;;;15.71;64.33;101356.34;1739743;82;21046;-74
2021/05/25 05:41:14;;;;;;;7.37;1.67;;;;;;;15.77;64.39;101349.41;1739577;82;20951;-73
2021/05/25 05:43:41;;;;;;;1.85;1.10;;;;;;;15.82;64.09;101357.18;1739811;82;21003;-71
2021/05/25 05:46:07;;;;;;;4.12;1.27;;;;;;;15.82;63.89;101345.66;1739774;82;21048;-69
2021/05/25 05:48:34;;;;;;;7.15;1.50;;;;;;;15.80;63.31;101344.99;1739795;82;21057;-72
2021/05/25 05:51:00;;;;;;;2.47;0.93;;;;;;;15.79;63.61;101357.56;1739731;82;20975;-78
2021/05/25 05:53:27;;;;;;;12.03;1.90;;;;;;;15.81;63.68;101350.18;1740023;82;21106;-76
2021/05/25 05:55:53;;;;;;;3.35;1.70;;;;;;;15.87;63.99;101347.23;1739790;82;21003;-72
2021/05/25 05:58:20;;;;;;;6.95;2.00;;;;;;;16.01;63.81;101346.88;1719062;82;21089;-75
2021/05/25 06:00:47;;;;;;;12.05;2.35;;;;;;;16.13;63.45;101343.98;1740134;82;21515;-72
2021/05/25 06:03:13;;;;;;;6.22;1.55;;;;;;;16.24;63.44;101342.95;1740106;82;20991;-73
2021/05/25 06:07:29;;;;;;;3.62;1.55;;;;;;;16.46;62.96;101338.41;1814915;79;22241;-74
2021/05/25 06:09:57;;;;;;;8.28;1.45;;;;;;;16.45;62.55;101331.38;1788176;80;20926;-73
2021/05/25 06:12:24;;;;;;;3.27;1.30;;;;;;;16.47;62.31;101334.68;1788105;80;21500;-73
2021/05/25 06:14:52;;;;;;;5.00;1.67;;;;;;;16.51;61.87;101331.09;1788103;80;20902;-72
2021/05/25 06:17:19;;;;;;;5.80;2.12;;;;;;;16.50;61.77;101332.97;1788152;80;20887;-74
2021/05/25 06:19:46;;;;;;;27.30;3.25;;;;;;;16.51;61.92;101325.22;1757753;80;20938;-71
2021/05/25 06:22:12;;;;;;;7.28;1.55;;;;;;;16.60;61.94;101322.75;1788265;80;20993;-69
2021/05/25 06:24:39;;;;;;;6.45;1.62;;;;;;;16.67;61.47;101314.73;1788235;80;20974;-61
2021/05/25 06:27:05;;;;;;;8.20;1.87;;;;;;;16.79;61.60;101315.84;1787530;80;21061;-61
2021/05/25 06:29:32;;;;;;;5.92;1.70;;;;;;;16.94;61.50;101315.22;1787770;80;21523;-65
2021/05/25 06:32:01;;;;;;;7.53;2.87;;;;;;;17.05;61.00;101312.48;1787695;80;21475;-65
2021/05/25 06:34:28;;;;;;;5.33;2.20;;;;;;;17.05;60.66;101307.94;1787889;80;20911;-64
2021/05/25 06:36:56;;;;;;;8.95;2.67;;;;;;;17.08;60.58;101304.02;1787764;80;21753;-69
2021/05/25 06:39:22;;;;;;;3.25;1.40;;;;;;;17.07;61.19;101304.52;1787997;80;20958;-65
2021/05/25 06:41:48;;;;;;;6.37;2.42;;;;;;;17.19;61.29;101299.41;1788132;80;21079;-67
2021/05/25 06:44:15;;;;;;;8.18;1.72;;;;;;;17.24;61.16;101301.83;1788085;80;21486;-70
2021/05/25 06:46:41;;;;;;;6.65;2.62;;;;;;;17.31;61.04;101295.96;1788245;80;21546;-71
2021/05/25 06:49:08;;;;;;;11.20;3.65;;;;;;;17.38;61.03;101290.60;1788078;80;21722;-70
2021/05/25 06:51:36;;;;;;;8.23;4.35;;;;;;;17.48;61.29;101289.72;1788156;80;21022;-68
2021/05/25 06:54:06;;;;;;;4.78;2.42;;;;;;;17.63;61.53;101293.11;1788174;80;20982;-69
2021/05/25 06:56:34;;;;;;;6.95;3.00;;;;;;;17.79;61.14;101292.70;1787967;80;20923;-69
2021/05/25 06:59:01;;;;;;;5.78;2.90;;;;;;;17.93;60.66;101288.19;1788149;80;20986;-68
2021/05/25 07:01:28;;;;;;;19.15;3.00;;;;;;;18.06;60.60;101286.01;1788092;80;21090;-70
2021/05/25 07:03:54;;;;;;;11.85;2.83;;;;;;;18.20;60.12;101278.27;1788009;80;20895;-69
2021/05/25 07:06:23;;;;;;;8.63;3.33;;;;;;;18.32;59.29;101279.28;1784707;80;20950;-68
2021/05/25 07:08:49;;;;;;;17.52;2.30;;;;;;;18.39;58.91;101282.82;1779823;80;21263;-68
2021/05/25 07:11:17;;;;;;;5.62;2.25;;;;;;;18.47;58.74;101282.58;1780398;80;20914;-69
2021/05/25 07:13:45;;;;;;;11.43;2.50;;;;;;;18.55;58.29;101282.40;1780426;80;21094;-68
2021/05/25 07:16:13;;;;;;;4.67;2.40;;;;;;;18.64;57.96;101277.11;1780244;80;21022;-68
2021/05/25 07:18:41;;;;;;;9.38;2.40;;;;;;;18.72;58.00;101276.89;1779884;80;21586;-68
2021/05/25 07:21:08;;;;;;;5.67;2.20;;;;;;;18.84;58.12;101273.03;1779813;80;21499;-67
2021/05/25 07:23:35;;;;;;;5.03;1.70;;;;;;;18.99;57.78;101275.47;1779919;80;21452;-70
2021/05/25 07:26:03;;;;;;;5.92;2.10;;;;;;;19.09;56.99;101270.45;1779912;80;21644;-71
2021/05/25 07:28:29;;;;;;;5.50;2.02;;;;;;;19.14;56.71;101275.52;1779690;80;20954;-69
2021/05/25 07:30:56;;;;;;;5.20;1.45;;;;;;;19.23;56.17;101267.98;1779896;80;20891;-68
2021/05/25 07:33:24;;;;;;;5.62;2.45;;;;;;;19.32;55.97;101264.53;1779955;80;21103;-70
2021/05/25 07:35:51;;;;;;;10.53;3.37;;;;;;;19.41;55.94;101258.66;1779903;80;21626;-69
2021/05/25 07:38:17;;;;;;;8.43;3.22;;;;;;;19.55;55.56;101260.81;1779943;80;20929;-68
2021/05/25 07:40:44;;;;;;;6.15;3.08;;;;;;;19.67;54.57;101264.48;1779669;80;20955;-68
2021/05/25 07:43:11;;;;;;;7.00;2.67;;;;;;;19.77;54.29;101270.22;1779740;80;21065;-69
2021/05/25 07:45:37;;;;;;;5.42;3.00;;;;;;;19.87;54.13;101262.97;1779846;80;21538;-68
2021/05/25 07:48:05;;;;;;;5.42;2.70;;;;;;;19.96;54.14;101256.27;1779761;80;21591;-68
2021/05/25 07:50:31;;;;;;;6.30;1.80;;;;;;;20.05;53.82;101253.06;1779887;80;21620;-69
2021/05/25 07:52:58;;;;;;;7.78;1.77;;;;;;;20.16;53.65;101251.03;1779691;80;21475;-69
2021/05/25 07:55:27;;;;;;;6.72;1.67;;;;;;;20.28;53.25;101251.14;1779791;80;21590;-69
2021/05/25 07:57:55;;;;;;;11.65;5.67;;;;;;;20.40;52.92;101253.94;1779832;80;20955;-69
2021/05/25 08:00:23;;;;;;;9.93;3.42;;;;;;;20.52;52.48;101251.64;1779898;80;20974;-72
2021/05/25 08:02:49;;;;;;;8.45;2.20;;;;;;;20.66;51.65;101251.80;1779697;80;21053;-71
2021/05/25 08:05:17;;;;;;;7.92;3.90;;;;;;;20.78;50.59;101249.70;1779707;80;20982;-71
2021/05/25 08:07:43;;;;;;;7.08;3.42;;;;;;;20.85;50.25;101243.16;1775179;80;20995;-71
2021/05/25 08:10:13;;;;;;;5.33;3.00;;;;;;;20.89;50.31;101242.19;1774085;80;21346;-71
2021/05/25 08:12:40;;;;;;;14.95;2.80;;;;;;;20.90;50.44;101243.33;1774006;80;20935;-72
2021/05/25 08:15:10;;;;;;;11.65;3.62;;;;;;;20.87;50.68;101244.30;1773892;80;20966;-70
2021/05/25 08:17:49;;;;;;;7.47;1.85;;;;;;;20.77;52.01;101245.36;1773997;80;20934;-70
2021/05/25 08:20:17;;;;;;;10.93;3.22;;;;;;;20.77;52.01;101245.36;1772208;80;20856;-71
2021/05/25 08:22:53;;;;;;;20.32;8.00;;;;;;;20.77;51.61;101243.46;1773933;80;21594;-69
2021/05/25 08:25:23;;;;;;;17.67;8.33;;;;;;;20.80;51.96;101243.03;1773919;80;21002;-71
2021/05/25 08:27:51;;;;;;;10.63;5.00;;;;;;;20.86;51.79;101246.70;1773880;80;21775;-71
2021/05/25 08:30:22;;;;;;;8.50;2.85;;;;;;;20.91;51.69;101249.03;1773859;80;20904;-71
2021/05/25 08:32:50;;;;;;;8.90;4.22;;;;;;;20.96;50.63;101247.02;1773926;80;20852;-72
2021/05/25 08:35:20;;;;;;;14.00;4.30;;;;;;;21.00;50.96;101249.53;1774002;80;21582;-72
2021/05/25 08:37:49;;;;;;;58.15;5.78;;;;;;;21.02;50.43;101245.58;1773966;80;20903;-71
2021/05/25 08:40:18;;;;;;;4.03;1.62;;;;;;;21.08;50.14;101247.88;1773916;80;22126;-71
2021/05/25 08:42:46;;;;;;;10.03;2.62;;;;;;;21.11;50.29;101240.72;1773976;80;20987;-71
2021/05/25 08:45:14;;;;;;;7.17;2.92;;;;;;;21.13;50.64;101240.78;1773873;80;21566;-73
2021/05/25 08:47:41;;;;;;;9.10;2.58;;;;;;;21.22;50.45;101249.41;1773913;80;21038;-72
2021/05/25 08:50:12;;;;;;;3.52;2.20;;;;;;;21.35;50.08;101252.45;1774080;80;21034;-71
2021/05/25 08:52:39;;;;;;;7.55;2.72;;;;;;;21.45;49.63;101242.72;1773824;80;21028;-72
2021/05/25 08:55:07;;;;;;;10.50;3.55;;;;;;;21.59;49.37;101243.37;1773979;80;21018;-72
2021/05/25 08:57:33;;;;;;;6.80;2.98;;;;;;;21.71;48.96;101252.88;1773977;80;20907;-73
2021/05/25 09:00:00;;;;;;;7.62;3.25;;;;;;;21.78;48.88;101254.95;1774012;80;21606;-72
2021/05/25 09:02:26;;;;;;;4.25;2.10;;;;;;;21.81;48.54;101251.26;1774094;80;21433;-71
2021/05/25 09:05:00;;;;;;;9.73;3.33;;;;;;;21.82;48.10;101257.50;1773944;80;21045;-72
2021/05/25 09:07:47;;;;;;;10.85;3.15;;;;;;;21.75;47.91;101254.07;1773768;80;20911;-73
2021/05/25 09:10:41;;;;;;;7.95;3.42;;;;;;;21.66;48.58;101254.09;1773998;80;21518;-72
2021/05/25 09:13:03;;;;;;;6.33;2.70;;;;;;;21.59;48.39;101252.33;1772602;80;21577;-73
2021/05/25 09:15:37;;;;;;;8.83;4.05;;;;;;;21.57;48.41;101249.00;1773860;80;20959;-73
2021/05/25 09:18:17;;;;;;;7.50;2.65;;;;;;;21.56;48.74;101245.99;1774082;80;22118;-72
2021/05/25 09:20:54;;;;;;;6.87;2.87;;;;;;;21.52;48.16;101247.54;1773838;80;21039;-71
2021/05/25 09:23:36;;;;;;;10.00;3.40;;;;;;;21.48;47.90;101246.34;1773835;80;21583;-71
2021/05/25 09:26:07;;;;;;;11.78;3.60;;;;;;;21.51;48.48;101247.76;1773831;80;20975;-72
2021/05/25 09:28:37;;;;;;;9.15;3.22;;;;;;;21.59;48.20;101243.37;1774080;80;21047;-72
2021/05/25 09:31:05;;;;;;;4.85;2.45;;;;;;;21.71;47.76;101251.01;1773866;80;21672;-71
2021/05/25 09:33:34;;;;;;;7.33;1.75;;;;;;;21.80;46.88;101252.30;1773836;80;21018;-72
2021/05/25 09:36:10;;;;;;;4.90;2.52;;;;;;;21.89;46.45;101250.92;1774021;80;21587;-72
2021/05/25 09:38:38;;;;;;;9.93;2.02;;;;;;;21.96;46.14;101246.78;1773881;80;20900;-73
2021/05/25 09:41:05;;;;;;;11.65;2.30;;;;;;;22.03;46.29;101240.72;1773821;80;21519;-73
2021/05/25 09:43:33;;;;;;;6.53;3.12;;;;;;;22.12;46.65;101237.16;1773897;80;21440;-74
2021/05/25 09:46:07;;;;;;;8.38;3.05;;;;;;;22.21;46.84;101229.78;1773806;80;21078;-71
2021/05/25 09:48:49;;;;;;;9.63;2.60;;;;;;;22.31;46.38;101232.75;1773907;80;21023;-72
2021/05/25 09:51:30;;;;;;;9.30;4.35;;;;;;;22.40;46.44;101235.91;1773541;80;21065;-72
2021/05/25 09:53:57;;;;;;;6.97;2.10;;;;;;;22.50;45.52;101230.21;1773821;80;20962;-73
2021/05/25 09:56:30;;;;;;;5.58;1.70;;;;;;;22.58;45.36;101228.47;1773891;80;21060;-73
2021/05/25 09:58:59;;;;;;;5.55;2.15;;;;;;;22.65;44.62;101223.47;1773893;80;20991;-74
2021/05/25 10:01:33;;;;;;;10.05;4.85;;;;;;;22.67;43.97;101210.48;1773777;80;20915;-72
2021/05/25 10:04:04;;;;;;;11.08;2.55;;;;;;;22.70;44.43;101206.00;1773988;80;21027;-72
2021/05/25 10:06:30;;;;;;;10.98;4.70;;;;;;;22.80;44.30;101203.49;1751737;80;21168;-71
2021/05/25 10:08:59;;;;;;;11.10;5.70;;;;;;;22.92;44.05;101204.29;1779447;80;20875;-71
2021/05/25 10:11:25;;;;;;;30.10;18.42;;;;;;;23.03;43.18;101200.72;1779690;80;20895;-72
2021/05/25 10:13:52;;;;;;;7.85;4.28;;;;;;;23.11;42.79;101200.86;1779693;80;21482;-73
2021/05/25 10:16:25;;;;;;;4.20;2.30;;;;;;;23.21;42.42;101200.52;1779513;80;20959;-74
2021/05/25 10:21:36;;;;;;;5.03;2.15;;;;;;;23.35;41.03;101203.22;1779617;80;21840;-72
2021/05/25 10:24:04;;;;;;;5.17;1.92;;;;;;;23.40;40.60;101200.61;1779567;80;21035;-72
2021/05/25 10:26:32;;;;;;;6.33;3.30;;;;;;;23.48;40.36;101195.34;1779712;80;21574;-72
2021/05/25 10:29:02;;;;;;;18.87;10.63;;;;;;;23.61;39.73;101192.30;1779701;80;21476;-72
2021/05/25 10:31:37;;;;;;;12.30;6.17;;;;;;;23.73;39.57;101197.66;1752676;80;20990;-72
2021/05/25 10:34:23;;;;;;;7.80;4.65;;;;;;;23.83;39.33;101191.86;1779736;80;21081;-71
2021/05/25 10:36:56;;;;;;;14.38;4.75;;;;;;;24.00;38.88;101186.44;1779505;80;21113;-71
2021/05/25 10:39:40;;;;;;;6.45;2.77;;;;;;;24.25;38.08;101174.61;1779610;80;21443;-72
2021/05/25 10:42:25;;;;;;;6.78;2.15;;;;;;;24.59;38.36;101175.87;1779531;80;21014;-72
2021/05/25 10:45:14;;;;;;;6.80;3.05;;;;;;;25.33;36.74;101175.14;1779988;80;21787;-73
2021/05/25 10:48:00;;;;;;;10.85;4.47;;;;;;;27.06;34.30;101161.55;1779820;80;22070;-72
2021/05/25 10:50:33;;;;;;;11.68;4.80;;;;;;;29.15;31.26;101160.39;1779619;80;20999;-75
2021/05/25 10:53:04;;;;;;;9.65;3.37;;;;;;;30.56;28.69;101158.86;1778638;80;21030;-74
2021/05/25 10:55:42;;;;;;;9.13;3.50;;;;;;;31.59;27.25;101149.72;1779669;80;21077;-72
2021/05/25 10:58:31;;;;;;;6.67;3.60;;;;;;;32.56;25.85;101144.59;1779852;80;20974;-72
2021/05/25 11:00:59;;;;;;;11.43;2.58;;;;;;;33.60;24.76;101151.32;1779820;80;22161;-72
2021/05/25 11:03:28;;;;;;;7.80;2.75;;;;;;;34.73;23.21;101152.37;1780010;80;21013;-74
2021/05/25 11:06:01;;;;;;;16.67;3.08;;;;;;;35.53;22.41;101144.59;1779823;80;21538;-73
2021/05/25 11:08:36;;;;;;;11.12;5.10;;;;;;;36.28;21.15;101152.22;1776042;80;20948;-72
2021/05/25 11:11:10;;;;;;;8.48;4.30;;;;;;;36.90;19.55;101149.56;1774101;80;21019;-72
2021/05/25 11:13:49;;;;;;;10.23;2.60;;;;;;;37.41;18.61;101144.77;1774066;80;21083;-72
2021/05/25 11:16:37;;;;;;;8.83;3.98;;;;;;;37.81;18.83;101150.56;1750664;80;20987;-74
2021/05/25 11:19:12;;;;;;;8.15;3.15;;;;;;;38.30;18.60;101155.04;1773933;80;21520;-74
2021/05/25 11:24:45;;;;;;;10.05;4.40;;;;;;;39.25;16.92;101136.38;1756479;79;21374;-73
2021/05/25 11:27:31;;;;;;;6.22;2.80;;;;;;;39.89;16.42;101131.19;1773518;80;21614;-68
2021/05/25 11:30:09;;;;;;;19.05;8.83;;;;;;;40.32;15.89;101129.72;1773565;80;20998;-71
2021/05/25 11:32:47;;;;;;;17.23;13.18;;;;;;;40.74;15.89;101128.53;1773941;80;20987;-72
2021/05/25 11:35:17;;;;;;;10.82;4.80;;;;;;;41.30;15.15;101131.70;1774171;79;21047;-68
2021/05/25 11:37:46;;;;;;;12.68;3.40;;;;;;;41.72;15.26;101130.33;1731068;82;21060;-72
2021/05/25 11:40:15;;;;;;;10.00;1.75;;;;;;;42.04;15.10;101121.12;1762995;81;21620;-71
2021/05/25 11:42:48;;;;;;;13.58;1.98;;;;;;;42.40;14.70;101123.11;1792016;79;21067;-76
2021/05/25 11:45:17;;;;;;;7.90;2.22;;;;;;;42.77;14.01;101123.25;1789400;79;21091;-75